Main page
METAR-TAF:

METAR-TAF

Airports :

Pohnpei International Airport

Pohnpei, Micronesia

latitude: 06-59N, longitude: 158-12E, elevation: 2 m

Current weather observation

The report was made 54 minutes ago, at 00:51 UTC
Wind 8 kt from the East/Northeast
Temperature 30°C
Humidity 79%
Pressure 1012 hPa
Visibility: 24.1 km
Scattered clouds at a height of 1800 ft, Towering cumulus.
Broken clouds at a height of 13000 ft
Overcast at a height of 30000 ft

METAR: PTPN 220051Z 06008KT 15SM SCT018TCU BKN130 OVC300 30/26 A2989 RMK TCU E-SE

Time: 12:45 (01:45 UTC)

Forecast

The report was made 2 hours and 6 minutes ago, at 23:39 UTC
Forecast valid from 22 at 00 UTC to 22 at 24 UTC
Wind 8 kt from the East/Northeast
Visibility: 10 km
Scattered clouds at a height of 1800 ft
Broken clouds at a height of 13000 ft
showers in vicinity

TAF: PTPN 212339Z 2200/2224 06008KT P6SM VCSH SCT018 BKN130

Weather observations and forecasts of more than 4000 airports (METAR and TAF reports).

The available stations are represented by yellow and red dots on the map.

Hover mouse over dot to see the name of the station.

Then click to see weather observations and forecasts.

To change the map : click on the green buttons with a black cross to zoom in, on the green button with a dash to zoom out, or on the green arrows for adjacent maps.


METAR-TAF: